sensor_id;sensor_type;location;lat;lon;timestamp;P1;durP1;ratioP1;P2;durP2;ratioP2
10467;SDS011;5281;48.878;9.394;2022-07-23T00:00:58;6.57;;;4.07;;
10467;SDS011;5281;48.878;9.394;2022-07-23T00:03:25;6.72;;;4.30;;
10467;SDS011;5281;48.878;9.394;2022-07-23T00:05:51;5.53;;;3.78;;
10467;SDS011;5281;48.878;9.394;2022-07-23T00:08:18;5.45;;;3.67;;
10467;SDS011;5281;48.878;9.394;2022-07-23T00:10:45;5.13;;;3.65;;
10467;SDS011;5281;48.878;9.394;2022-07-23T00:13:12;6.78;;;3.55;;
10467;SDS011;5281;48.878;9.394;2022-07-23T00:15:38;4.22;;;3.53;;
10467;SDS011;5281;48.878;9.394;2022-07-23T00:18:06;5.88;;;3.45;;
10467;SDS011;5281;48.878;9.394;2022-07-23T00:20:33;6.45;;;3.45;;
10467;SDS011;5281;48.878;9.394;2022-07-23T00:23:00;5.97;;;3.67;;
10467;SDS011;5281;48.878;9.394;2022-07-23T00:25:27;5.55;;;3.50;;
10467;SDS011;5281;48.878;9.394;2022-07-23T00:27:53;5.80;;;3.58;;
10467;SDS011;5281;48.878;9.394;2022-07-23T00:30:20;4.53;;;3.65;;
10467;SDS011;5281;48.878;9.394;2022-07-23T00:32:47;4.38;;;3.40;;
10467;SDS011;5281;48.878;9.394;2022-07-23T00:35:19;6.18;;;3.45;;
10467;SDS011;5281;48.878;9.394;2022-07-23T00:37:46;6.25;;;3.30;;
10467;SDS011;5281;48.878;9.394;2022-07-23T00:40:13;4.25;;;3.33;;
10467;SDS011;5281;48.878;9.394;2022-07-23T00:42:40;5.60;;;3.50;;
10467;SDS011;5281;48.878;9.394;2022-07-23T00:45:07;3.67;;;3.38;;
10467;SDS011;5281;48.878;9.394;2022-07-23T00:47:34;3.42;;;3.13;;
10467;SDS011;5281;48.878;9.394;2022-07-23T00:50:02;3.72;;;3.03;;
10467;SDS011;5281;48.878;9.394;2022-07-23T00:52:30;3.25;;;2.95;;
10467;SDS011;5281;48.878;9.394;2022-07-23T00:54:58;3.47;;;2.92;;
10467;SDS011;5281;48.878;9.394;2022-07-23T00:57:25;5.00;;;3.30;;
10467;SDS011;5281;48.878;9.394;2022-07-23T00:59:52;6.68;;;3.13;;
10467;SDS011;5281;48.878;9.394;2022-07-23T01:02:19;3.53;;;3.08;;
10467;SDS011;5281;48.878;9.394;2022-07-23T01:04:45;4.25;;;2.83;;
10467;SDS011;5281;48.878;9.394;2022-07-23T01:07:12;4.72;;;3.10;;
10467;SDS011;5281;48.878;9.394;2022-07-23T01:09:40;5.90;;;3.00;;
10467;SDS011;5281;48.878;9.394;2022-07-23T01:12:08;2.90;;;2.70;;
10467;SDS011;5281;48.878;9.394;2022-07-23T01:14:35;3.08;;;2.80;;
10467;SDS011;5281;48.878;9.394;2022-07-23T01:17:02;6.55;;;6.00;;
10467;SDS011;5281;48.878;9.394;2022-07-23T01:19:28;4.40;;;3.70;;
10467;SDS011;5281;48.878;9.394;2022-07-23T01:21:56;3.00;;;2.70;;
10467;SDS011;5281;48.878;9.394;2022-07-23T01:24:25;3.75;;;2.92;;
10467;SDS011;5281;48.878;9.394;2022-07-23T01:26:52;3.17;;;2.85;;
10467;SDS011;5281;48.878;9.394;2022-07-23T01:29:19;4.13;;;2.85;;
10467;SDS011;5281;48.878;9.394;2022-07-23T01:31:46;3.45;;;3.10;;
10467;SDS011;5281;48.878;9.394;2022-07-23T01:34:13;3.75;;;2.78;;
10467;SDS011;5281;48.878;9.394;2022-07-23T01:36:40;3.25;;;2.70;;
10467;SDS011;5281;48.878;9.394;2022-07-23T01:39:07;5.00;;;3.70;;
10467;SDS011;5281;48.878;9.394;2022-07-23T01:41:35;4.15;;;2.97;;
10467;SDS011;5281;48.878;9.394;2022-07-23T01:44:02;4.75;;;3.25;;
10467;SDS011;5281;48.878;9.394;2022-07-23T01:46:28;5.70;;;3.53;;
10467;SDS011;5281;48.878;9.394;2022-07-23T01:48:55;3.75;;;2.70;;
10467;SDS011;5281;48.878;9.394;2022-07-23T01:51:22;3.47;;;2.83;;
10467;SDS011;5281;48.878;9.394;2022-07-23T01:53:48;3.20;;;2.90;;
10467;SDS011;5281;48.878;9.394;2022-07-23T01:56:15;3.22;;;2.90;;
10467;SDS011;5281;48.878;9.394;2022-07-23T01:58:46;3.88;;;2.78;;
10467;SDS011;5281;48.878;9.394;2022-07-23T02:01:13;3.67;;;2.75;;
10467;SDS011;5281;48.878;9.394;2022-07-23T02:03:39;3.20;;;2.90;;
10467;SDS011;5281;48.878;9.394;2022-07-23T02:06:06;2.97;;;2.72;;
10467;SDS011;5281;48.878;9.394;2022-07-23T02:08:33;5.95;;;2.80;;
10467;SDS011;5281;48.878;9.394;2022-07-23T02:10:59;4.00;;;2.75;;
10467;SDS011;5281;48.878;9.394;2022-07-23T02:13:26;2.75;;;2.50;;
10467;SDS011;5281;48.878;9.394;2022-07-23T02:15:55;3.78;;;3.05;;
10467;SDS011;5281;48.878;9.394;2022-07-23T02:18:22;3.50;;;2.97;;
10467;SDS011;5281;48.878;9.394;2022-07-23T02:20:48;3.42;;;2.85;;
10467;SDS011;5281;48.878;9.394;2022-07-23T02:23:15;3.25;;;2.90;;
10467;SDS011;5281;48.878;9.394;2022-07-23T02:25:42;3.88;;;2.70;;
10467;SDS011;5281;48.878;9.394;2022-07-23T02:28:09;2.95;;;2.60;;
10467;SDS011;5281;48.878;9.394;2022-07-23T02:30:35;3.20;;;2.80;;
10467;SDS011;5281;48.878;9.394;2022-07-23T02:33:04;3.58;;;2.80;;
10467;SDS011;5281;48.878;9.394;2022-07-23T02:35:30;5.45;;;4.07;;
10467;SDS011;5281;48.878;9.394;2022-07-23T02:37:57;4.13;;;3.42;;
10467;SDS011;5281;48.878;9.394;2022-07-23T02:40:24;4.95;;;3.28;;
10467;SDS011;5281;48.878;9.394;2022-07-23T02:42:50;3.42;;;2.83;;
10467;SDS011;5281;48.878;9.394;2022-07-23T02:45:17;4.60;;;3.00;;
10467;SDS011;5281;48.878;9.394;2022-07-23T02:47:44;3.50;;;3.20;;
10467;SDS011;5281;48.878;9.394;2022-07-23T02:50:12;3.28;;;2.97;;
10467;SDS011;5281;48.878;9.394;2022-07-23T02:52:38;3.72;;;3.42;;
10467;SDS011;5281;48.878;9.394;2022-07-23T02:55:06;3.95;;;3.33;;
10467;SDS011;5281;48.878;9.394;2022-07-23T02:57:33;3.17;;;2.88;;
10467;SDS011;5281;48.878;9.394;2022-07-23T03:00:00;4.30;;;3.30;;
10467;SDS011;5281;48.878;9.394;2022-07-23T03:02:27;4.97;;;3.47;;
10467;SDS011;5281;48.878;9.394;2022-07-23T03:04:53;3.95;;;3.17;;
10467;SDS011;5281;48.878;9.394;2022-07-23T03:07:21;4.05;;;3.25;;
10467;SDS011;5281;48.878;9.394;2022-07-23T03:09:48;4.93;;;3.55;;
10467;SDS011;5281;48.878;9.394;2022-07-23T03:12:15;5.15;;;3.50;;
10467;SDS011;5281;48.878;9.394;2022-07-23T03:14:41;4.57;;;3.67;;
10467;SDS011;5281;48.878;9.394;2022-07-23T03:17:08;3.60;;;3.25;;
10467;SDS011;5281;48.878;9.394;2022-07-23T03:19:35;5.82;;;3.80;;
10467;SDS011;5281;48.878;9.394;2022-07-23T03:22:03;4.07;;;3.38;;
10467;SDS011;5281;48.878;9.394;2022-07-23T03:24:31;3.30;;;3.00;;
10467;SDS011;5281;48.878;9.394;2022-07-23T03:27:12;5.25;;;3.78;;
10467;SDS011;5281;48.878;9.394;2022-07-23T03:29:39;3.70;;;3.33;;
10467;SDS011;5281;48.878;9.394;2022-07-23T03:32:06;5.80;;;3.47;;
10467;SDS011;5281;48.878;9.394;2022-07-23T03:34:33;3.55;;;3.25;;
10467;SDS011;5281;48.878;9.394;2022-07-23T03:37:00;4.25;;;3.45;;
10467;SDS011;5281;48.878;9.394;2022-07-23T03:39:26;5.45;;;3.70;;
10467;SDS011;5281;48.878;9.394;2022-07-23T03:41:54;5.25;;;3.47;;
10467;SDS011;5281;48.878;9.394;2022-07-23T03:44:21;4.07;;;3.38;;
10467;SDS011;5281;48.878;9.394;2022-07-23T03:46:48;4.35;;;3.40;;
10467;SDS011;5281;48.878;9.394;2022-07-23T03:49:15;4.40;;;3.60;;
10467;SDS011;5281;48.878;9.394;2022-07-23T03:51:41;4.32;;;3.22;;
10467;SDS011;5281;48.878;9.394;2022-07-23T03:54:08;3.85;;;3.33;;
10467;SDS011;5281;48.878;9.394;2022-07-23T03:56:35;4.47;;;3.17;;
10467;SDS011;5281;48.878;9.394;2022-07-23T03:59:03;5.18;;;3.38;;
10467;SDS011;5281;48.878;9.394;2022-07-23T04:01:30;4.05;;;3.65;;
10467;SDS011;5281;48.878;9.394;2022-07-23T04:03:57;4.22;;;3.60;;
10467;SDS011;5281;48.878;9.394;2022-07-23T04:06:24;5.57;;;3.90;;
10467;SDS011;5281;48.878;9.394;2022-07-23T04:08:51;4.00;;;3.50;;
10467;SDS011;5281;48.878;9.394;2022-07-23T04:11:17;5.03;;;3.63;;
10467;SDS011;5281;48.878;9.394;2022-07-23T04:13:44;8.30;;;3.72;;
10467;SDS011;5281;48.878;9.394;2022-07-23T04:16:12;3.97;;;3.10;;
10467;SDS011;5281;48.878;9.394;2022-07-23T04:18:39;4.45;;;3.40;;
10467;SDS011;5281;48.878;9.394;2022-07-23T04:21:06;3.50;;;3.20;;
10467;SDS011;5281;48.878;9.394;2022-07-23T04:23:32;4.93;;;3.50;;
10467;SDS011;5281;48.878;9.394;2022-07-23T04:25:59;5.53;;;3.28;;
10467;SDS011;5281;48.878;9.394;2022-07-23T04:28:26;3.90;;;3.22;;
10467;SDS011;5281;48.878;9.394;2022-07-23T04:30:53;4.72;;;3.30;;
10467;SDS011;5281;48.878;9.394;2022-07-23T04:33:23;4.47;;;4.00;;
10467;SDS011;5281;48.878;9.394;2022-07-23T04:35:50;3.80;;;3.50;;
10467;SDS011;5281;48.878;9.394;2022-07-23T04:38:17;4.30;;;3.40;;
10467;SDS011;5281;48.878;9.394;2022-07-23T04:40:43;3.80;;;3.35;;
10467;SDS011;5281;48.878;9.394;2022-07-23T04:43:10;3.65;;;3.35;;
10467;SDS011;5281;48.878;9.394;2022-07-23T04:45:37;5.78;;;3.75;;
10467;SDS011;5281;48.878;9.394;2022-07-23T04:48:04;3.83;;;3.40;;
10467;SDS011;5281;48.878;9.394;2022-07-23T04:50:32;4.70;;;3.30;;
10467;SDS011;5281;48.878;9.394;2022-07-23T04:52:59;4.97;;;3.70;;
10467;SDS011;5281;48.878;9.394;2022-07-23T04:55:26;5.03;;;3.78;;
10467;SDS011;5281;48.878;9.394;2022-07-23T04:57:52;4.20;;;3.67;;
10467;SDS011;5281;48.878;9.394;2022-07-23T05:00:19;5.28;;;3.55;;
10467;SDS011;5281;48.878;9.394;2022-07-23T05:02:46;6.95;;;3.92;;
10467;SDS011;5281;48.878;9.394;2022-07-23T05:05:13;4.00;;;3.60;;
10467;SDS011;5281;48.878;9.394;2022-07-23T05:07:41;4.10;;;3.70;;
10467;SDS011;5281;48.878;9.394;2022-07-23T05:10:08;3.63;;;3.33;;
10467;SDS011;5281;48.878;9.394;2022-07-23T05:12:35;6.43;;;3.80;;
10467;SDS011;5281;48.878;9.394;2022-07-23T05:15:01;4.00;;;3.60;;
10467;SDS011;5281;48.878;9.394;2022-07-23T05:17:28;4.75;;;3.42;;
10467;SDS011;5281;48.878;9.394;2022-07-23T05:19:55;10.07;;;4.03;;
10467;SDS011;5281;48.878;9.394;2022-07-23T05:22:22;4.72;;;3.70;;
10467;SDS011;5281;48.878;9.394;2022-07-23T05:24:50;5.82;;;3.92;;
10467;SDS011;5281;48.878;9.394;2022-07-23T05:27:16;6.20;;;3.60;;
10467;SDS011;5281;48.878;9.394;2022-07-23T05:29:43;5.03;;;3.70;;
10467;SDS011;5281;48.878;9.394;2022-07-23T05:32:10;3.58;;;3.28;;
10467;SDS011;5281;48.878;9.394;2022-07-23T05:34:36;5.15;;;3.58;;
10467;SDS011;5281;48.878;9.394;2022-07-23T05:37:03;4.25;;;3.47;;
10467;SDS011;5281;48.878;9.394;2022-07-23T05:39:29;3.53;;;3.22;;
10467;SDS011;5281;48.878;9.394;2022-07-23T05:41:58;6.95;;;6.07;;
10467;SDS011;5281;48.878;9.394;2022-07-23T05:44:24;3.85;;;3.28;;
10467;SDS011;5281;48.878;9.394;2022-07-23T05:46:52;4.78;;;3.38;;
10467;SDS011;5281;48.878;9.394;2022-07-23T05:49:19;4.68;;;3.47;;
10467;SDS011;5281;48.878;9.394;2022-07-23T05:51:45;3.60;;;3.30;;
10467;SDS011;5281;48.878;9.394;2022-07-23T05:54:12;5.43;;;3.55;;
10467;SDS011;5281;48.878;9.394;2022-07-23T05:56:39;5.38;;;4.03;;
10467;SDS011;5281;48.878;9.394;2022-07-23T05:59:07;3.80;;;3.50;;
10467;SDS011;5281;48.878;9.394;2022-07-23T06:01:34;5.45;;;3.45;;
10467;SDS011;5281;48.878;9.394;2022-07-23T06:04:01;5.60;;;3.50;;
10467;SDS011;5281;48.878;9.394;2022-07-23T06:06:27;5.68;;;3.40;;
10467;SDS011;5281;48.878;9.394;2022-07-23T06:08:54;4.78;;;4.28;;
10467;SDS011;5281;48.878;9.394;2022-07-23T06:11:21;4.07;;;3.28;;
10467;SDS011;5281;48.878;9.394;2022-07-23T06:13:47;4.15;;;3.67;;
10467;SDS011;5281;48.878;9.394;2022-07-23T06:16:15;4.25;;;3.33;;
10467;SDS011;5281;48.878;9.394;2022-07-23T06:18:42;4.50;;;3.30;;
10467;SDS011;5281;48.878;9.394;2022-07-23T06:21:09;6.75;;;3.75;;
10467;SDS011;5281;48.878;9.394;2022-07-23T06:23:35;3.85;;;3.55;;
10467;SDS011;5281;48.878;9.394;2022-07-23T06:26:02;4.53;;;3.40;;
10467;SDS011;5281;48.878;9.394;2022-07-23T06:28:29;5.20;;;3.55;;
10467;SDS011;5281;48.878;9.394;2022-07-23T06:30:55;4.75;;;3.65;;
10467;SDS011;5281;48.878;9.394;2022-07-23T06:33:23;4.43;;;3.97;;
10467;SDS011;5281;48.878;9.394;2022-07-23T06:35:50;5.40;;;3.67;;
10467;SDS011;5281;48.878;9.394;2022-07-23T06:38:17;6.15;;;3.92;;
10467;SDS011;5281;48.878;9.394;2022-07-23T06:40:43;4.80;;;3.47;;
10467;SDS011;5281;48.878;9.394;2022-07-23T06:43:10;5.32;;;3.83;;
10467;SDS011;5281;48.878;9.394;2022-07-23T06:45:37;5.80;;;3.53;;
10467;SDS011;5281;48.878;9.394;2022-07-23T06:48:04;3.55;;;3.25;;
10467;SDS011;5281;48.878;9.394;2022-07-23T06:50:32;6.65;;;3.78;;
10467;SDS011;5281;48.878;9.394;2022-07-23T06:52:59;5.97;;;3.72;;
10467;SDS011;5281;48.878;9.394;2022-07-23T06:55:26;6.45;;;3.80;;
10467;SDS011;5281;48.878;9.394;2022-07-23T06:57:53;5.80;;;4.10;;
10467;SDS011;5281;48.878;9.394;2022-07-23T07:00:19;5.47;;;3.92;;
10467;SDS011;5281;48.878;9.394;2022-07-23T07:02:46;7.45;;;4.43;;
10467;SDS011;5281;48.878;9.394;2022-07-23T07:05:13;7.40;;;4.88;;
10467;SDS011;5281;48.878;9.394;2022-07-23T07:07:41;6.18;;;5.03;;
10467;SDS011;5281;48.878;9.394;2022-07-23T07:10:08;4.63;;;4.22;;
10467;SDS011;5281;48.878;9.394;2022-07-23T07:12:35;6.00;;;4.53;;
10467;SDS011;5281;48.878;9.394;2022-07-23T07:15:02;5.28;;;4.78;;
10467;SDS011;5281;48.878;9.394;2022-07-23T07:17:29;6.97;;;5.07;;
10467;SDS011;5281;48.878;9.394;2022-07-23T07:19:56;5.22;;;4.70;;
10467;SDS011;5281;48.878;9.394;2022-07-23T07:22:22;5.85;;;5.30;;
10467;SDS011;5281;48.878;9.394;2022-07-23T07:24:50;9.10;;;5.60;;
10467;SDS011;5281;48.878;9.394;2022-07-23T07:27:17;10.07;;;5.28;;
10467;SDS011;5281;48.878;9.394;2022-07-23T07:29:44;6.78;;;5.13;;
10467;SDS011;5281;48.878;9.394;2022-07-23T07:32:10;10.18;;;5.80;;
10467;SDS011;5281;48.878;9.394;2022-07-23T07:34:37;13.15;;;5.70;;
10467;SDS011;5281;48.878;9.394;2022-07-23T07:37:04;6.15;;;5.28;;
10467;SDS011;5281;48.878;9.394;2022-07-23T07:39:30;9.15;;;5.60;;
10467;SDS011;5281;48.878;9.394;2022-07-23T07:41:58;10.82;;;5.25;;
10467;SDS011;5281;48.878;9.394;2022-07-23T07:44:25;10.50;;;6.00;;
10467;SDS011;5281;48.878;9.394;2022-07-23T07:46:52;17.10;;;5.43;;
10467;SDS011;5281;48.878;9.394;2022-07-23T07:49:18;11.23;;;4.75;;
10467;SDS011;5281;48.878;9.394;2022-07-23T07:51:46;10.40;;;5.65;;
10467;SDS011;5281;48.878;9.394;2022-07-23T07:54:13;9.18;;;5.93;;
10467;SDS011;5281;48.878;9.394;2022-07-23T07:56:39;6.90;;;5.65;;
10467;SDS011;5281;48.878;9.394;2022-07-23T07:59:07;7.13;;;5.57;;
10467;SDS011;5281;48.878;9.394;2022-07-23T08:01:36;9.02;;;5.75;;
10467;SDS011;5281;48.878;9.394;2022-07-23T08:04:03;6.30;;;5.20;;
10467;SDS011;5281;48.878;9.394;2022-07-23T08:06:30;6.43;;;4.95;;
10467;SDS011;5281;48.878;9.394;2022-07-23T08:08:56;6.65;;;4.40;;
10467;SDS011;5281;48.878;9.394;2022-07-23T08:11:23;8.02;;;5.20;;
10467;SDS011;5281;48.878;9.394;2022-07-23T08:13:50;4.75;;;4.07;;
10467;SDS011;5281;48.878;9.394;2022-07-23T08:16:18;6.78;;;4.30;;
10467;SDS011;5281;48.878;9.394;2022-07-23T08:18:44;7.05;;;4.65;;
10467;SDS011;5281;48.878;9.394;2022-07-23T08:21:11;4.72;;;4.30;;
10467;SDS011;5281;48.878;9.394;2022-07-23T08:23:38;4.65;;;4.15;;
10467;SDS011;5281;48.878;9.394;2022-07-23T08:26:04;4.93;;;4.43;;
10467;SDS011;5281;48.878;9.394;2022-07-23T08:28:31;7.22;;;4.65;;
10467;SDS011;5281;48.878;9.394;2022-07-23T08:30:59;6.25;;;4.63;;
10467;SDS011;5281;48.878;9.394;2022-07-23T08:33:27;4.95;;;4.45;;
10467;SDS011;5281;48.878;9.394;2022-07-23T08:35:53;5.05;;;4.40;;
10467;SDS011;5281;48.878;9.394;2022-07-23T08:38:21;4.50;;;4.05;;
10467;SDS011;5281;48.878;9.394;2022-07-23T08:40:50;5.35;;;4.35;;
10467;SDS011;5281;48.878;9.394;2022-07-23T08:43:19;5.00;;;4.40;;
10467;SDS011;5281;48.878;9.394;2022-07-23T08:45:49;5.20;;;4.20;;
10467;SDS011;5281;48.878;9.394;2022-07-23T08:48:17;8.13;;;4.20;;
10467;SDS011;5281;48.878;9.394;2022-07-23T08:50:47;7.03;;;4.38;;
10467;SDS011;5281;48.878;9.394;2022-07-23T08:53:16;5.53;;;4.50;;
10467;SDS011;5281;48.878;9.394;2022-07-23T08:55:44;6.43;;;4.38;;
10467;SDS011;5281;48.878;9.394;2022-07-23T08:58:11;5.93;;;4.32;;
10467;SDS011;5281;48.878;9.394;2022-07-23T09:00:38;5.68;;;4.63;;
10467;SDS011;5281;48.878;9.394;2022-07-23T09:03:05;5.20;;;3.85;;
10467;SDS011;5281;48.878;9.394;2022-07-23T09:05:32;5.22;;;4.10;;
10467;SDS011;5281;48.878;9.394;2022-07-23T09:08:10;5.03;;;3.90;;
10467;SDS011;5281;48.878;9.394;2022-07-23T09:10:45;4.30;;;3.90;;
10467;SDS011;5281;48.878;9.394;2022-07-23T09:13:23;5.22;;;4.72;;
10467;SDS011;5281;48.878;9.394;2022-07-23T09:15:51;6.75;;;3.88;;
10467;SDS011;5281;48.878;9.394;2022-07-23T09:18:19;6.95;;;3.70;;
10467;SDS011;5281;48.878;9.394;2022-07-23T09:20:57;4.10;;;3.70;;
10467;SDS011;5281;48.878;9.394;2022-07-23T09:23:40;4.38;;;3.97;;
10467;SDS011;5281;48.878;9.394;2022-07-23T09:26:18;6.15;;;3.67;;
10467;SDS011;5281;48.878;9.394;2022-07-23T09:28:56;4.68;;;3.80;;
10467;SDS011;5281;48.878;9.394;2022-07-23T09:31:24;4.35;;;3.95;;
10467;SDS011;5281;48.878;9.394;2022-07-23T09:34:06;4.30;;;3.90;;
10467;SDS011;5281;48.878;9.394;2022-07-23T09:36:33;6.25;;;3.60;;
10467;SDS011;5281;48.878;9.394;2022-07-23T09:39:01;6.05;;;3.80;;
10467;SDS011;5281;48.878;9.394;2022-07-23T09:41:33;4.80;;;3.80;;
10467;SDS011;5281;48.878;9.394;2022-07-23T09:44:09;4.55;;;3.60;;
10467;SDS011;5281;48.878;9.394;2022-07-23T09:46:38;4.50;;;3.47;;
10467;SDS011;5281;48.878;9.394;2022-07-23T09:49:18;3.83;;;3.50;;
10467;SDS011;5281;48.878;9.394;2022-07-23T09:51:50;4.78;;;3.35;;
10467;SDS011;5281;48.878;9.394;2022-07-23T09:54:27;4.40;;;3.63;;
10467;SDS011;5281;48.878;9.394;2022-07-23T09:56:57;3.78;;;3.40;;
10467;SDS011;5281;48.878;9.394;2022-07-23T09:59:25;3.78;;;3.40;;
10467;SDS011;5281;48.878;9.394;2022-07-23T10:01:53;5.20;;;3.42;;
10467;SDS011;5281;48.878;9.394;2022-07-23T10:04:22;3.90;;;3.60;;
10467;SDS011;5281;48.878;9.394;2022-07-23T10:06:51;3.90;;;3.60;;
10467;SDS011;5281;48.878;9.394;2022-07-23T10:09:21;5.72;;;3.80;;
10467;SDS011;5281;48.878;9.394;2022-07-23T10:11:51;4.00;;;3.65;;
10467;SDS011;5281;48.878;9.394;2022-07-23T10:14:21;4.35;;;3.25;;
10467;SDS011;5281;48.878;9.394;2022-07-23T10:16:47;5.05;;;3.72;;
10467;SDS011;5281;48.878;9.394;2022-07-23T10:19:14;3.50;;;3.20;;
10467;SDS011;5281;48.878;9.394;2022-07-23T10:21:42;4.47;;;3.70;;
10467;SDS011;5281;48.878;9.394;2022-07-23T10:24:15;3.90;;;3.08;;
10467;SDS011;5281;48.878;9.394;2022-07-23T10:26:48;4.75;;;3.70;;
10467;SDS011;5281;48.878;9.394;2022-07-23T10:29:24;4.05;;;3.25;;
10467;SDS011;5281;48.878;9.394;2022-07-23T10:32:07;6.13;;;4.25;;
10467;SDS011;5281;48.878;9.394;2022-07-23T10:34:44;6.43;;;4.10;;
10467;SDS011;5281;48.878;9.394;2022-07-23T10:37:17;7.53;;;3.70;;
10467;SDS011;5281;48.878;9.394;2022-07-23T10:40:01;5.97;;;3.80;;
10467;SDS011;5281;48.878;9.394;2022-07-23T10:42:36;5.00;;;3.85;;
10467;SDS011;5281;48.878;9.394;2022-07-23T10:47:50;4.75;;;3.53;;
10467;SDS011;5281;48.878;9.394;2022-07-23T10:50:18;4.50;;;3.40;;
10467;SDS011;5281;48.878;9.394;2022-07-23T10:55:45;4.60;;;3.25;;
10467;SDS011;5281;48.878;9.394;2022-07-23T10:58:19;3.80;;;3.50;;
10467;SDS011;5281;48.878;9.394;2022-07-23T11:00:47;4.60;;;4.07;;
10467;SDS011;5281;48.878;9.394;2022-07-23T11:03:34;4.15;;;3.72;;
10467;SDS011;5281;48.878;9.394;2022-07-23T11:06:03;5.18;;;3.53;;
10467;SDS011;5281;48.878;9.394;2022-07-23T11:08:30;3.95;;;3.65;;
10467;SDS011;5281;48.878;9.394;2022-07-23T11:11:08;3.75;;;3.40;;
10467;SDS011;5281;48.878;9.394;2022-07-23T11:13:41;5.38;;;3.75;;
10467;SDS011;5281;48.878;9.394;2022-07-23T11:16:12;5.10;;;3.38;;
10467;SDS011;5281;48.878;9.394;2022-07-23T11:18:54;5.80;;;4.60;;
10467;SDS011;5281;48.878;9.394;2022-07-23T11:21:44;6.13;;;3.90;;
10467;SDS011;5281;48.878;9.394;2022-07-23T11:24:18;3.80;;;3.50;;
10467;SDS011;5281;48.878;9.394;2022-07-23T11:26:50;6.95;;;4.90;;
10467;SDS011;5281;48.878;9.394;2022-07-23T11:29:42;6.50;;;5.50;;
10467;SDS011;5281;48.878;9.394;2022-07-23T11:32:24;4.07;;;3.70;;
10467;SDS011;5281;48.878;9.394;2022-07-23T11:35:03;4.60;;;4.20;;
10467;SDS011;5281;48.878;9.394;2022-07-23T11:37:48;4.00;;;3.70;;
10467;SDS011;5281;48.878;9.394;2022-07-23T11:40:18;6.88;;;3.85;;
10467;SDS011;5281;48.878;9.394;2022-07-23T11:42:51;5.00;;;4.00;;
10467;SDS011;5281;48.878;9.394;2022-07-23T11:45:20;4.82;;;3.88;;
10467;SDS011;5281;48.878;9.394;2022-07-23T11:47:48;4.35;;;3.95;;
10467;SDS011;5281;48.878;9.394;2022-07-23T11:50:14;6.15;;;4.03;;
10467;SDS011;5281;48.878;9.394;2022-07-23T11:52:41;4.68;;;3.60;;
10467;SDS011;5281;48.878;9.394;2022-07-23T11:55:09;4.20;;;3.80;;
10467;SDS011;5281;48.878;9.394;2022-07-23T11:57:37;3.70;;;3.35;;
10467;SDS011;5281;48.878;9.394;2022-07-23T12:00:07;4.43;;;4.03;;
10467;SDS011;5281;48.878;9.394;2022-07-23T12:02:37;4.57;;;3.80;;
10467;SDS011;5281;48.878;9.394;2022-07-23T12:05:04;3.65;;;3.35;;
10467;SDS011;5281;48.878;9.394;2022-07-23T12:07:32;5.13;;;3.88;;
10467;SDS011;5281;48.878;9.394;2022-07-23T12:10:02;4.07;;;3.70;;
10467;SDS011;5281;48.878;9.394;2022-07-23T12:12:37;5.70;;;3.80;;
10467;SDS011;5281;48.878;9.394;2022-07-23T12:15:06;5.53;;;4.05;;
10467;SDS011;5281;48.878;9.394;2022-07-23T12:17:36;4.30;;;3.90;;
10467;SDS011;5281;48.878;9.394;2022-07-23T12:20:06;3.80;;;3.50;;
10467;SDS011;5281;48.878;9.394;2022-07-23T12:22:35;4.13;;;3.78;;
10467;SDS011;5281;48.878;9.394;2022-07-23T12:25:04;4.50;;;4.10;;
10467;SDS011;5281;48.878;9.394;2022-07-23T12:27:33;3.88;;;3.47;;
10467;SDS011;5281;48.878;9.394;2022-07-23T12:30:14;3.92;;;3.63;;
10467;SDS011;5281;48.878;9.394;2022-07-23T12:32:47;3.83;;;3.45;;
10467;SDS011;5281;48.878;9.394;2022-07-23T12:35:15;3.75;;;3.45;;
10467;SDS011;5281;48.878;9.394;2022-07-23T12:37:43;4.53;;;3.55;;
10467;SDS011;5281;48.878;9.394;2022-07-23T12:40:18;4.10;;;3.70;;
10467;SDS011;5281;48.878;9.394;2022-07-23T12:42:45;12.57;;;4.85;;
10467;SDS011;5281;48.878;9.394;2022-07-23T12:45:13;4.80;;;3.50;;
10467;SDS011;5281;48.878;9.394;2022-07-23T12:47:55;4.13;;;3.72;;
10467;SDS011;5281;48.878;9.394;2022-07-23T12:50:30;4.45;;;3.95;;
10467;SDS011;5281;48.878;9.394;2022-07-23T12:53:01;5.10;;;4.28;;
10467;SDS011;5281;48.878;9.394;2022-07-23T12:55:29;5.57;;;5.07;;
10467;SDS011;5281;48.878;9.394;2022-07-23T12:58:02;4.40;;;4.00;;
10467;SDS011;5281;48.878;9.394;2022-07-23T13:00:30;4.55;;;3.92;;
10467;SDS011;5281;48.878;9.394;2022-07-23T13:02:59;4.80;;;4.10;;
10467;SDS011;5281;48.878;9.394;2022-07-23T13:05:25;5.07;;;4.22;;
10467;SDS011;5281;48.878;9.394;2022-07-23T13:07:52;5.75;;;3.90;;
10467;SDS011;5281;48.878;9.394;2022-07-23T13:10:19;4.32;;;3.92;;
10467;SDS011;5281;48.878;9.394;2022-07-23T13:12:46;5.45;;;4.22;;
10467;SDS011;5281;48.878;9.394;2022-07-23T13:15:12;9.40;;;4.47;;
10467;SDS011;5281;48.878;9.394;2022-07-23T13:17:39;4.75;;;3.88;;
10467;SDS011;5281;48.878;9.394;2022-07-23T13:20:11;5.88;;;4.30;;
10467;SDS011;5281;48.878;9.394;2022-07-23T13:22:38;5.68;;;4.32;;
10467;SDS011;5281;48.878;9.394;2022-07-23T13:25:05;5.50;;;4.00;;
10467;SDS011;5281;48.878;9.394;2022-07-23T13:27:32;4.47;;;4.07;;
10467;SDS011;5281;48.878;9.394;2022-07-23T13:29:59;4.95;;;3.83;;
10467;SDS011;5281;48.878;9.394;2022-07-23T13:32:26;5.38;;;4.20;;
10467;SDS011;5281;48.878;9.394;2022-07-23T13:34:53;7.15;;;5.40;;
10467;SDS011;5281;48.878;9.394;2022-07-23T13:37:21;4.70;;;4.15;;
10467;SDS011;5281;48.878;9.394;2022-07-23T13:39:47;6.90;;;4.07;;
10467;SDS011;5281;48.878;9.394;2022-07-23T13:42:14;5.18;;;4.43;;
10467;SDS011;5281;48.878;9.394;2022-07-23T13:44:41;4.50;;;4.10;;
10467;SDS011;5281;48.878;9.394;2022-07-23T13:47:07;4.68;;;4.28;;
10467;SDS011;5281;48.878;9.394;2022-07-23T13:49:34;5.88;;;4.28;;
10467;SDS011;5281;48.878;9.394;2022-07-23T13:52:01;5.10;;;4.60;;
10467;SDS011;5281;48.878;9.394;2022-07-23T13:54:29;6.20;;;4.45;;
10467;SDS011;5281;48.878;9.394;2022-07-23T13:56:56;6.72;;;4.30;;
10467;SDS011;5281;48.878;9.394;2022-07-23T13:59:23;5.10;;;4.70;;
10467;SDS011;5281;48.878;9.394;2022-07-23T14:01:50;8.93;;;5.05;;
10467;SDS011;5281;48.878;9.394;2022-07-23T14:04:17;5.20;;;4.70;;
10467;SDS011;5281;48.878;9.394;2022-07-23T14:06:43;5.35;;;4.68;;
10467;SDS011;5281;48.878;9.394;2022-07-23T14:09:10;7.78;;;5.47;;
10467;SDS011;5281;48.878;9.394;2022-07-23T14:11:38;6.80;;;5.15;;
10467;SDS011;5281;48.878;9.394;2022-07-23T14:14:05;6.38;;;4.90;;
10467;SDS011;5281;48.878;9.394;2022-07-23T14:16:31;6.03;;;4.70;;
10467;SDS011;5281;48.878;9.394;2022-07-23T14:18:58;5.70;;;5.05;;
10467;SDS011;5281;48.878;9.394;2022-07-23T14:21:25;5.47;;;4.90;;
10467;SDS011;5281;48.878;9.394;2022-07-23T14:23:52;5.70;;;4.97;;
10467;SDS011;5281;48.878;9.394;2022-07-23T14:26:19;5.50;;;5.00;;
10467;SDS011;5281;48.878;9.394;2022-07-23T14:28:47;4.93;;;4.43;;
10467;SDS011;5281;48.878;9.394;2022-07-23T14:31:14;5.47;;;4.75;;
10467;SDS011;5281;48.878;9.394;2022-07-23T14:33:40;7.18;;;4.70;;
10467;SDS011;5281;48.878;9.394;2022-07-23T14:36:07;6.50;;;4.53;;
10467;SDS011;5281;48.878;9.394;2022-07-23T14:38:34;7.00;;;4.40;;
10467;SDS011;5281;48.878;9.394;2022-07-23T14:41:01;6.47;;;4.45;;
10467;SDS011;5281;48.878;9.394;2022-07-23T14:43:31;5.57;;;4.88;;
10467;SDS011;5281;48.878;9.394;2022-07-23T14:45:59;4.50;;;3.97;;
10467;SDS011;5281;48.878;9.394;2022-07-23T14:48:26;5.05;;;4.63;;
10467;SDS011;5281;48.878;9.394;2022-07-23T14:50:53;5.20;;;4.70;;
10467;SDS011;5281;48.878;9.394;2022-07-23T14:53:19;4.90;;;4.50;;
10467;SDS011;5281;48.878;9.394;2022-07-23T14:55:46;5.65;;;4.70;;
10467;SDS011;5281;48.878;9.394;2022-07-23T14:58:13;6.78;;;4.57;;
10467;SDS011;5281;48.878;9.394;2022-07-23T15:00:40;5.10;;;4.60;;
10467;SDS011;5281;48.878;9.394;2022-07-23T15:03:08;7.20;;;4.53;;
10467;SDS011;5281;48.878;9.394;2022-07-23T15:05:35;5.28;;;4.00;;
10467;SDS011;5281;48.878;9.394;2022-07-23T15:08:02;6.53;;;4.55;;
10467;SDS011;5281;48.878;9.394;2022-07-23T15:10:29;4.68;;;4.25;;
10467;SDS011;5281;48.878;9.394;2022-07-23T15:12:55;4.88;;;4.35;;